Pagrindinis puslapis
METAR-TAF:

METAR-TAF

Oro uostai :

Elsenborn

Bütgenbach, Belgija

platuma: 50-28N, ilguma: 006-11E, Aukštis: 564 m

Dabartinis oras

Ataskaita buvo paskelbta 44 minutes, ne 23:25 UTC
Vėjas 12 kt iš Šiaurės/Šiaurės Rytų
Temperatūra 1°C
Drėgmė 80%
Slėgis 1023 hPa
Matomumas 10 km arba daugiau

METAR: EBLB 282325Z AUTO 02012KT 9999 BKN015/// 01/M02 Q1023 WHT

Laikas: 01:09 (00:09 UTC)


TAF: trūkstamas

Orai ataskaitas ir orų prognozės (METAR, TAF).

turimą stotys yra geltonos ir raudonos taškus žemėlapyje.

Perkelti pele per norėdami pamatyti stoties vardą.

Tada spustelėkite, norėdami matyti oro stebėjimo ir prognozės.

Norėdami pakeisti žemėlapį: spustelėkite ant žalios mygtukų su juodo kryžiaus žemyn,; žalią mygtuką su brūkšneliu, jei norite nutolinti; arba žalių rodyklių gretimoms žemėlapius.


METAR-TAF: